sensor_id;sensor_type;location;lat;lon;timestamp;P1;durP1;ratioP1;P2;durP2;ratioP2
12024;SDS011;6073;53.230;10.444;2022-11-24T00:02:00;11.10;;;7.28;;
12024;SDS011;6073;53.230;10.444;2022-11-24T00:04:26;15.18;;;6.75;;
12024;SDS011;6073;53.230;10.444;2022-11-24T00:06:52;11.65;;;7.07;;
12024;SDS011;6073;53.230;10.444;2022-11-24T00:09:17;13.80;;;7.10;;
12024;SDS011;6073;53.230;10.444;2022-11-24T00:11:43;12.88;;;7.45;;
12024;SDS011;6073;53.230;10.444;2022-11-24T00:14:09;15.15;;;6.90;;
12024;SDS011;6073;53.230;10.444;2022-11-24T00:16:36;12.00;;;7.00;;
12024;SDS011;6073;53.230;10.444;2022-11-24T00:19:03;11.90;;;6.93;;
12024;SDS011;6073;53.230;10.444;2022-11-24T00:21:30;11.55;;;7.22;;
12024;SDS011;6073;53.230;10.444;2022-11-24T00:23:57;12.15;;;7.10;;
12024;SDS011;6073;53.230;10.444;2022-11-24T00:26:26;8.68;;;6.72;;
12024;SDS011;6073;53.230;10.444;2022-11-24T00:28:55;12.10;;;6.55;;
12024;SDS011;6073;53.230;10.444;2022-11-24T00:31:27;12.23;;;7.13;;
12024;SDS011;6073;53.230;10.444;2022-11-24T00:33:58;10.27;;;6.45;;
12024;SDS011;6073;53.230;10.444;2022-11-24T00:36:27;9.90;;;6.78;;
12024;SDS011;6073;53.230;10.444;2022-11-24T00:38:56;10.90;;;6.50;;
12024;SDS011;6073;53.230;10.444;2022-11-24T00:41:23;10.77;;;5.90;;
12024;SDS011;6073;53.230;10.444;2022-11-24T00:43:50;13.32;;;7.18;;
12024;SDS011;6073;53.230;10.444;2022-11-24T00:46:16;7.72;;;6.45;;
12024;SDS011;6073;53.230;10.444;2022-11-24T00:48:43;9.77;;;6.47;;
12024;SDS011;6073;53.230;10.444;2022-11-24T00:51:10;9.98;;;6.72;;
12024;SDS011;6073;53.230;10.444;2022-11-24T00:53:36;12.43;;;6.43;;
12024;SDS011;6073;53.230;10.444;2022-11-24T00:56:02;11.10;;;5.97;;
12024;SDS011;6073;53.230;10.444;2022-11-24T00:58:28;16.52;;;6.20;;
12024;SDS011;6073;53.230;10.444;2022-11-24T01:00:54;11.80;;;5.95;;
12024;SDS011;6073;53.230;10.444;2022-11-24T01:03:25;10.88;;;6.43;;
12024;SDS011;6073;53.230;10.444;2022-11-24T01:05:50;9.52;;;6.05;;
12024;SDS011;6073;53.230;10.444;2022-11-24T01:08:16;11.32;;;6.75;;
12024;SDS011;6073;53.230;10.444;2022-11-24T01:10:41;11.70;;;6.70;;
12024;SDS011;6073;53.230;10.444;2022-11-24T01:13:07;9.63;;;6.43;;
12024;SDS011;6073;53.230;10.444;2022-11-24T01:15:36;11.90;;;5.72;;
12024;SDS011;6073;53.230;10.444;2022-11-24T01:18:20;10.48;;;5.72;;
12024;SDS011;6073;53.230;10.444;2022-11-24T01:20:45;8.45;;;5.85;;
12024;SDS011;6073;53.230;10.444;2022-11-24T01:23:11;10.40;;;6.38;;
12024;SDS011;6073;53.230;10.444;2022-11-24T01:25:38;10.77;;;6.63;;
12024;SDS011;6073;53.230;10.444;2022-11-24T01:28:04;10.45;;;6.43;;
12024;SDS011;6073;53.230;10.444;2022-11-24T01:30:29;12.75;;;6.68;;
12024;SDS011;6073;53.230;10.444;2022-11-24T01:32:55;11.38;;;6.15;;
12024;SDS011;6073;53.230;10.444;2022-11-24T01:35:20;9.95;;;6.20;;
12024;SDS011;6073;53.230;10.444;2022-11-24T01:37:46;11.07;;;5.70;;
12024;SDS011;6073;53.230;10.444;2022-11-24T01:40:12;13.02;;;6.63;;
12024;SDS011;6073;53.230;10.444;2022-11-24T01:42:48;9.30;;;6.25;;
12024;SDS011;6073;53.230;10.444;2022-11-24T01:45:31;10.80;;;6.35;;
12024;SDS011;6073;53.230;10.444;2022-11-24T01:48:00;8.75;;;5.82;;
12024;SDS011;6073;53.230;10.444;2022-11-24T01:50:29;17.85;;;6.72;;
12024;SDS011;6073;53.230;10.444;2022-11-24T01:52:55;10.57;;;7.03;;
12024;SDS011;6073;53.230;10.444;2022-11-24T01:55:31;9.30;;;6.25;;
12024;SDS011;6073;53.230;10.444;2022-11-24T01:58:07;8.00;;;5.60;;
12024;SDS011;6073;53.230;10.444;2022-11-24T02:00:39;10.48;;;6.30;;
12024;SDS011;6073;53.230;10.444;2022-11-24T02:03:08;12.32;;;6.78;;
12024;SDS011;6073;53.230;10.444;2022-11-24T02:05:38;8.05;;;5.72;;
12024;SDS011;6073;53.230;10.444;2022-11-24T02:08:11;11.43;;;6.35;;
12024;SDS011;6073;53.230;10.444;2022-11-24T02:10:45;9.85;;;5.95;;
12024;SDS011;6073;53.230;10.444;2022-11-24T02:13:12;9.60;;;5.68;;
12024;SDS011;6073;53.230;10.444;2022-11-24T02:15:38;8.65;;;5.85;;
12024;SDS011;6073;53.230;10.444;2022-11-24T02:18:06;11.30;;;6.10;;
12024;SDS011;6073;53.230;10.444;2022-11-24T02:20:31;9.32;;;5.10;;
12024;SDS011;6073;53.230;10.444;2022-11-24T02:27:59;10.40;;;5.55;;
12024;SDS011;6073;53.230;10.444;2022-11-24T02:30:26;14.02;;;6.20;;
12024;SDS011;6073;53.230;10.444;2022-11-24T02:32:52;13.13;;;5.88;;
12024;SDS011;6073;53.230;10.444;2022-11-24T02:35:18;9.05;;;5.30;;
12024;SDS011;6073;53.230;10.444;2022-11-24T02:37:44;10.13;;;5.93;;
12024;SDS011;6073;53.230;10.444;2022-11-24T02:40:09;9.95;;;5.90;;
12024;SDS011;6073;53.230;10.444;2022-11-24T02:42:39;9.02;;;5.60;;
12024;SDS011;6073;53.230;10.444;2022-11-24T02:45:08;11.48;;;6.10;;
12024;SDS011;6073;53.230;10.444;2022-11-24T02:47:35;10.20;;;5.47;;
12024;SDS011;6073;53.230;10.444;2022-11-24T02:50:00;11.27;;;5.43;;
12024;SDS011;6073;53.230;10.444;2022-11-24T02:52:26;7.72;;;6.03;;
12024;SDS011;6073;53.230;10.444;2022-11-24T02:54:52;9.23;;;5.95;;
12024;SDS011;6073;53.230;10.444;2022-11-24T02:57:17;10.40;;;6.07;;
12024;SDS011;6073;53.230;10.444;2022-11-24T02:59:43;11.23;;;6.85;;
12024;SDS011;6073;53.230;10.444;2022-11-24T03:02:10;10.25;;;6.60;;
12024;SDS011;6073;53.230;10.444;2022-11-24T03:04:36;8.45;;;5.72;;
12024;SDS011;6073;53.230;10.444;2022-11-24T03:07:01;7.15;;;5.70;;
12024;SDS011;6073;53.230;10.444;2022-11-24T03:09:27;10.80;;;6.60;;
12024;SDS011;6073;53.230;10.444;2022-11-24T03:11:54;8.20;;;6.32;;
12024;SDS011;6073;53.230;10.444;2022-11-24T03:14:19;9.45;;;5.65;;
12024;SDS011;6073;53.230;10.444;2022-11-24T03:16:45;9.15;;;5.93;;
12024;SDS011;6073;53.230;10.444;2022-11-24T03:19:11;12.85;;;6.47;;
12024;SDS011;6073;53.230;10.444;2022-11-24T03:21:37;11.70;;;6.05;;
12024;SDS011;6073;53.230;10.444;2022-11-24T03:24:02;8.05;;;5.90;;
12024;SDS011;6073;53.230;10.444;2022-11-24T03:26:28;9.57;;;5.95;;
12024;SDS011;6073;53.230;10.444;2022-11-24T03:28:54;8.65;;;6.47;;
12024;SDS011;6073;53.230;10.444;2022-11-24T03:31:21;9.02;;;6.20;;
12024;SDS011;6073;53.230;10.444;2022-11-24T03:33:47;12.30;;;6.28;;
12024;SDS011;6073;53.230;10.444;2022-11-24T03:36:13;10.85;;;6.35;;
12024;SDS011;6073;53.230;10.444;2022-11-24T03:38:38;13.50;;;6.63;;
12024;SDS011;6073;53.230;10.444;2022-11-24T03:41:04;12.57;;;6.97;;
12024;SDS011;6073;53.230;10.444;2022-11-24T03:43:30;10.15;;;6.50;;
12024;SDS011;6073;53.230;10.444;2022-11-24T03:45:56;12.38;;;6.75;;
12024;SDS011;6073;53.230;10.444;2022-11-24T03:48:22;9.07;;;5.72;;
12024;SDS011;6073;53.230;10.444;2022-11-24T03:50:54;10.30;;;6.80;;
12024;SDS011;6073;53.230;10.444;2022-11-24T03:53:22;10.40;;;6.82;;
12024;SDS011;6073;53.230;10.444;2022-11-24T03:55:48;15.15;;;7.32;;
12024;SDS011;6073;53.230;10.444;2022-11-24T03:58:14;12.35;;;7.20;;
12024;SDS011;6073;53.230;10.444;2022-11-24T04:00:40;14.80;;;7.18;;
12024;SDS011;6073;53.230;10.444;2022-11-24T04:03:06;14.43;;;7.10;;
12024;SDS011;6073;53.230;10.444;2022-11-24T04:05:31;13.57;;;7.97;;
12024;SDS011;6073;53.230;10.444;2022-11-24T04:08:00;15.30;;;7.85;;
12024;SDS011;6073;53.230;10.444;2022-11-24T04:10:27;12.43;;;7.10;;
12024;SDS011;6073;53.230;10.444;2022-11-24T04:12:54;10.73;;;6.97;;
12024;SDS011;6073;53.230;10.444;2022-11-24T04:15:20;11.73;;;6.95;;
12024;SDS011;6073;53.230;10.444;2022-11-24T04:17:46;14.65;;;7.22;;
12024;SDS011;6073;53.230;10.444;2022-11-24T04:20:13;11.50;;;7.55;;
12024;SDS011;6073;53.230;10.444;2022-11-24T04:22:39;15.13;;;7.28;;
12024;SDS011;6073;53.230;10.444;2022-11-24T04:25:06;10.10;;;6.93;;
12024;SDS011;6073;53.230;10.444;2022-11-24T04:27:32;12.30;;;7.35;;
12024;SDS011;6073;53.230;10.444;2022-11-24T04:30:00;11.65;;;7.47;;
12024;SDS011;6073;53.230;10.444;2022-11-24T04:32:25;9.52;;;6.78;;
12024;SDS011;6073;53.230;10.444;2022-11-24T04:34:51;11.40;;;6.88;;
12024;SDS011;6073;53.230;10.444;2022-11-24T04:37:17;15.68;;;7.13;;
12024;SDS011;6073;53.230;10.444;2022-11-24T04:39:42;12.95;;;7.32;;
12024;SDS011;6073;53.230;10.444;2022-11-24T04:42:10;11.13;;;7.05;;
12024;SDS011;6073;53.230;10.444;2022-11-24T04:44:36;11.82;;;7.78;;
12024;SDS011;6073;53.230;10.444;2022-11-24T04:47:01;12.68;;;7.10;;
12024;SDS011;6073;53.230;10.444;2022-11-24T04:49:27;18.17;;;9.25;;
12024;SDS011;6073;53.230;10.444;2022-11-24T04:51:53;11.07;;;7.50;;
12024;SDS011;6073;53.230;10.444;2022-11-24T04:54:19;10.90;;;7.10;;
12024;SDS011;6073;53.230;10.444;2022-11-24T04:56:48;13.77;;;7.18;;
12024;SDS011;6073;53.230;10.444;2022-11-24T04:59:15;10.65;;;6.40;;
12024;SDS011;6073;53.230;10.444;2022-11-24T05:01:42;11.70;;;7.10;;
12024;SDS011;6073;53.230;10.444;2022-11-24T05:04:08;10.55;;;7.63;;
12024;SDS011;6073;53.230;10.444;2022-11-24T05:06:35;11.13;;;7.18;;
12024;SDS011;6073;53.230;10.444;2022-11-24T05:09:02;13.52;;;6.97;;
12024;SDS011;6073;53.230;10.444;2022-11-24T05:11:28;12.80;;;7.50;;
12024;SDS011;6073;53.230;10.444;2022-11-24T05:13:53;11.43;;;6.55;;
12024;SDS011;6073;53.230;10.444;2022-11-24T05:16:19;11.20;;;6.45;;
12024;SDS011;6073;53.230;10.444;2022-11-24T05:18:45;11.40;;;6.80;;
12024;SDS011;6073;53.230;10.444;2022-11-24T05:21:10;11.57;;;6.90;;
12024;SDS011;6073;53.230;10.444;2022-11-24T05:23:36;12.55;;;7.03;;
12024;SDS011;6073;53.230;10.444;2022-11-24T05:26:01;14.32;;;7.28;;
12024;SDS011;6073;53.230;10.444;2022-11-24T05:28:28;9.70;;;7.05;;
12024;SDS011;6073;53.230;10.444;2022-11-24T05:30:56;13.88;;;7.70;;
12024;SDS011;6073;53.230;10.444;2022-11-24T05:33:24;12.38;;;7.78;;
12024;SDS011;6073;53.230;10.444;2022-11-24T05:35:52;10.50;;;7.30;;
12024;SDS011;6073;53.230;10.444;2022-11-24T05:38:18;12.70;;;7.10;;
12024;SDS011;6073;53.230;10.444;2022-11-24T05:40:46;12.73;;;7.90;;
12024;SDS011;6073;53.230;10.444;2022-11-24T05:43:11;11.93;;;6.93;;
12024;SDS011;6073;53.230;10.444;2022-11-24T05:45:38;11.48;;;7.22;;
12024;SDS011;6073;53.230;10.444;2022-11-24T05:48:05;11.00;;;7.03;;
12024;SDS011;6073;53.230;10.444;2022-11-24T05:50:32;13.05;;;6.90;;
12024;SDS011;6073;53.230;10.444;2022-11-24T05:53:05;15.90;;;7.38;;
12024;SDS011;6073;53.230;10.444;2022-11-24T05:55:33;14.20;;;7.35;;
12024;SDS011;6073;53.230;10.444;2022-11-24T05:57:59;11.38;;;7.38;;
12024;SDS011;6073;53.230;10.444;2022-11-24T06:00:27;9.93;;;6.97;;
12024;SDS011;6073;53.230;10.444;2022-11-24T06:02:53;11.65;;;7.05;;
12024;SDS011;6073;53.230;10.444;2022-11-24T06:05:20;11.13;;;6.93;;
12024;SDS011;6073;53.230;10.444;2022-11-24T06:07:46;18.55;;;7.38;;
12024;SDS011;6073;53.230;10.444;2022-11-24T06:10:12;11.43;;;6.57;;
12024;SDS011;6073;53.230;10.444;2022-11-24T06:12:39;10.77;;;7.00;;
12024;SDS011;6073;53.230;10.444;2022-11-24T06:15:04;9.30;;;6.78;;
12024;SDS011;6073;53.230;10.444;2022-11-24T06:17:30;11.40;;;7.15;;
12024;SDS011;6073;53.230;10.444;2022-11-24T06:19:56;10.85;;;6.90;;
12024;SDS011;6073;53.230;10.444;2022-11-24T06:22:21;13.23;;;7.72;;
12024;SDS011;6073;53.230;10.444;2022-11-24T06:27:15;12.70;;;6.57;;
12024;SDS011;6073;53.230;10.444;2022-11-24T06:29:41;13.20;;;7.30;;
12024;SDS011;6073;53.230;10.444;2022-11-24T06:32:07;12.68;;;7.15;;
12024;SDS011;6073;53.230;10.444;2022-11-24T06:34:33;12.77;;;7.38;;
12024;SDS011;6073;53.230;10.444;2022-11-24T06:36:58;12.63;;;7.53;;
12024;SDS011;6073;53.230;10.444;2022-11-24T06:39:24;11.85;;;6.72;;
12024;SDS011;6073;53.230;10.444;2022-11-24T06:41:50;11.60;;;6.03;;
12024;SDS011;6073;53.230;10.444;2022-11-24T06:44:16;14.05;;;6.90;;
12024;SDS011;6073;53.230;10.444;2022-11-24T06:46:42;11.52;;;6.93;;
12024;SDS011;6073;53.230;10.444;2022-11-24T06:49:07;12.20;;;6.63;;
12024;SDS011;6073;53.230;10.444;2022-11-24T06:51:33;13.05;;;6.28;;
12024;SDS011;6073;53.230;10.444;2022-11-24T06:53:58;8.88;;;5.88;;
12024;SDS011;6073;53.230;10.444;2022-11-24T06:56:24;13.40;;;6.88;;
12024;SDS011;6073;53.230;10.444;2022-11-24T06:58:51;16.63;;;6.97;;
12024;SDS011;6073;53.230;10.444;2022-11-24T07:01:18;12.52;;;6.60;;
12024;SDS011;6073;53.230;10.444;2022-11-24T07:03:48;13.40;;;6.50;;
12024;SDS011;6073;53.230;10.444;2022-11-24T07:06:15;11.32;;;6.22;;
12024;SDS011;6073;53.230;10.444;2022-11-24T07:08:42;9.63;;;6.13;;
12024;SDS011;6073;53.230;10.444;2022-11-24T07:11:09;13.85;;;7.25;;
12024;SDS011;6073;53.230;10.444;2022-11-24T07:13:36;11.30;;;7.20;;
12024;SDS011;6073;53.230;10.444;2022-11-24T07:16:18;11.88;;;6.85;;
12024;SDS011;6073;53.230;10.444;2022-11-24T07:18:46;14.70;;;7.35;;
12024;SDS011;6073;53.230;10.444;2022-11-24T07:21:13;11.85;;;6.78;;
12024;SDS011;6073;53.230;10.444;2022-11-24T07:23:39;10.10;;;6.40;;
12024;SDS011;6073;53.230;10.444;2022-11-24T07:26:05;16.13;;;7.80;;
12024;SDS011;6073;53.230;10.444;2022-11-24T07:28:32;14.18;;;6.82;;
12024;SDS011;6073;53.230;10.444;2022-11-24T07:31:07;14.57;;;6.80;;
12024;SDS011;6073;53.230;10.444;2022-11-24T07:33:34;16.67;;;7.13;;
12024;SDS011;6073;53.230;10.444;2022-11-24T07:36:00;9.68;;;6.57;;
12024;SDS011;6073;53.230;10.444;2022-11-24T07:38:27;13.40;;;6.47;;
12024;SDS011;6073;53.230;10.444;2022-11-24T07:40:57;17.15;;;7.05;;
12024;SDS011;6073;53.230;10.444;2022-11-24T07:43:27;16.23;;;7.50;;
12024;SDS011;6073;53.230;10.444;2022-11-24T07:45:54;12.80;;;7.07;;
12024;SDS011;6073;53.230;10.444;2022-11-24T07:48:20;11.35;;;7.38;;
12024;SDS011;6073;53.230;10.444;2022-11-24T07:50:46;16.23;;;6.97;;
12024;SDS011;6073;53.230;10.444;2022-11-24T07:53:11;12.52;;;7.00;;
12024;SDS011;6073;53.230;10.444;2022-11-24T07:55:37;13.30;;;7.05;;
12024;SDS011;6073;53.230;10.444;2022-11-24T07:58:02;13.13;;;6.60;;
12024;SDS011;6073;53.230;10.444;2022-11-24T08:00:28;14.27;;;6.78;;
12024;SDS011;6073;53.230;10.444;2022-11-24T08:02:53;11.00;;;6.80;;
12024;SDS011;6073;53.230;10.444;2022-11-24T08:05:19;14.18;;;6.60;;
12024;SDS011;6073;53.230;10.444;2022-11-24T08:07:45;9.73;;;6.32;;
12024;SDS011;6073;53.230;10.444;2022-11-24T08:10:10;11.20;;;6.53;;
12024;SDS011;6073;53.230;10.444;2022-11-24T08:12:36;13.32;;;7.45;;
12024;SDS011;6073;53.230;10.444;2022-11-24T08:15:02;15.98;;;7.60;;
12024;SDS011;6073;53.230;10.444;2022-11-24T08:17:27;13.10;;;7.07;;
12024;SDS011;6073;53.230;10.444;2022-11-24T08:19:53;16.33;;;7.13;;
12024;SDS011;6073;53.230;10.444;2022-11-24T08:22:19;9.93;;;6.07;;
12024;SDS011;6073;53.230;10.444;2022-11-24T08:24:44;11.63;;;5.65;;
12024;SDS011;6073;53.230;10.444;2022-11-24T08:27:13;10.15;;;6.55;;
12024;SDS011;6073;53.230;10.444;2022-11-24T08:29:40;9.63;;;5.72;;
12024;SDS011;6073;53.230;10.444;2022-11-24T08:32:06;10.63;;;6.57;;
12024;SDS011;6073;53.230;10.444;2022-11-24T08:34:31;8.98;;;5.43;;
12024;SDS011;6073;53.230;10.444;2022-11-24T08:36:57;11.05;;;6.10;;
12024;SDS011;6073;53.230;10.444;2022-11-24T08:39:23;13.35;;;6.07;;
12024;SDS011;6073;53.230;10.444;2022-11-24T08:41:48;11.07;;;5.70;;
12024;SDS011;6073;53.230;10.444;2022-11-24T08:44:14;15.82;;;6.43;;
12024;SDS011;6073;53.230;10.444;2022-11-24T08:46:57;11.15;;;6.18;;
12024;SDS011;6073;53.230;10.444;2022-11-24T08:49:22;14.13;;;6.13;;
12024;SDS011;6073;53.230;10.444;2022-11-24T08:51:48;15.77;;;6.40;;
12024;SDS011;6073;53.230;10.444;2022-11-24T08:54:15;12.73;;;6.07;;
12024;SDS011;6073;53.230;10.444;2022-11-24T08:56:42;9.50;;;5.70;;
12024;SDS011;6073;53.230;10.444;2022-11-24T08:59:10;8.93;;;5.45;;
12024;SDS011;6073;53.230;10.444;2022-11-24T09:01:37;12.18;;;6.05;;
12024;SDS011;6073;53.230;10.444;2022-11-24T09:04:02;13.35;;;5.88;;
12024;SDS011;6073;53.230;10.444;2022-11-24T09:06:28;13.07;;;5.90;;
12024;SDS011;6073;53.230;10.444;2022-11-24T09:08:56;14.27;;;5.63;;
12024;SDS011;6073;53.230;10.444;2022-11-24T09:11:23;8.43;;;5.32;;
12024;SDS011;6073;53.230;10.444;2022-11-24T09:13:51;8.80;;;4.95;;
12024;SDS011;6073;53.230;10.444;2022-11-24T09:16:18;11.48;;;4.93;;
12024;SDS011;6073;53.230;10.444;2022-11-24T09:18:45;10.40;;;5.05;;
12024;SDS011;6073;53.230;10.444;2022-11-24T09:21:16;10.10;;;4.93;;
12024;SDS011;6073;53.230;10.444;2022-11-24T09:23:45;15.52;;;5.97;;
12024;SDS011;6073;53.230;10.444;2022-11-24T09:26:16;12.93;;;5.50;;
12024;SDS011;6073;53.230;10.444;2022-11-24T09:28:44;12.05;;;5.40;;
12024;SDS011;6073;53.230;10.444;2022-11-24T09:31:11;10.38;;;4.90;;
12024;SDS011;6073;53.230;10.444;2022-11-24T09:33:38;9.48;;;5.00;;
12024;SDS011;6073;53.230;10.444;2022-11-24T09:36:04;9.70;;;5.20;;
12024;SDS011;6073;53.230;10.444;2022-11-24T09:38:30;9.32;;;4.50;;
12024;SDS011;6073;53.230;10.444;2022-11-24T09:41:02;11.35;;;5.30;;
12024;SDS011;6073;53.230;10.444;2022-11-24T09:43:40;9.52;;;4.38;;
12024;SDS011;6073;53.230;10.444;2022-11-24T09:48:50;9.50;;;4.80;;
12024;SDS011;6073;53.230;10.444;2022-11-24T09:51:21;14.10;;;5.72;;
12024;SDS011;6073;53.230;10.444;2022-11-24T09:53:53;9.65;;;4.68;;
12024;SDS011;6073;53.230;10.444;2022-11-24T09:56:26;9.52;;;4.55;;
12024;SDS011;6073;53.230;10.444;2022-11-24T10:01:35;9.82;;;4.28;;
12024;SDS011;6073;53.230;10.444;2022-11-24T10:04:08;13.68;;;5.07;;
12024;SDS011;6073;53.230;10.444;2022-11-24T10:07:07;10.48;;;4.60;;
12024;SDS011;6073;53.230;10.444;2022-11-24T10:17:58;8.55;;;4.57;;
12024;SDS011;6073;53.230;10.444;2022-11-24T10:20:57;9.70;;;4.55;;
12024;SDS011;6073;53.230;10.444;2022-11-24T10:26:25;9.45;;;4.70;;
12024;SDS011;6073;53.230;10.444;2022-11-24T10:29:09;8.15;;;4.03;;
12024;SDS011;6073;53.230;10.444;2022-11-24T10:31:50;7.00;;;4.03;;
12024;SDS011;6073;53.230;10.444;2022-11-24T10:34:21;15.43;;;4.97;;
12024;SDS011;6073;53.230;10.444;2022-11-24T10:42:34;7.30;;;3.83;;
12024;SDS011;6073;53.230;10.444;2022-11-24T10:45:11;10.55;;;4.40;;
12024;SDS011;6073;53.230;10.444;2022-11-24T10:47:39;8.52;;;3.72;;
12024;SDS011;6073;53.230;10.444;2022-11-24T10:52:44;9.57;;;4.80;;
12024;SDS011;6073;53.230;10.444;2022-11-24T10:55:15;9.52;;;4.22;;
12024;SDS011;6073;53.230;10.444;2022-11-24T10:57:40;11.10;;;4.53;;
12024;SDS011;6073;53.230;10.444;2022-11-24T11:02:49;6.90;;;4.00;;
12024;SDS011;6073;53.230;10.444;2022-11-24T11:05:40;9.82;;;3.63;;
12024;SDS011;6073;53.230;10.444;2022-11-24T11:08:15;11.00;;;4.00;;
12024;SDS011;6073;53.230;10.444;2022-11-24T11:13:39;7.15;;;3.67;;
12024;SDS011;6073;53.230;10.444;2022-11-24T11:16:23;8.68;;;3.42;;
12024;SDS011;6073;53.230;10.444;2022-11-24T11:18:52;9.80;;;4.00;;
12024;SDS011;6073;53.230;10.444;2022-11-24T11:21:36;11.77;;;4.10;;
12024;SDS011;6073;53.230;10.444;2022-11-24T11:24:04;8.88;;;3.58;;
12024;SDS011;6073;53.230;10.444;2022-11-24T11:26:39;9.65;;;3.78;;
12024;SDS011;6073;53.230;10.444;2022-11-24T11:29:16;13.07;;;4.20;;
12024;SDS011;6073;53.230;10.444;2022-11-24T11:31:55;10.45;;;3.97;;
12024;SDS011;6073;53.230;10.444;2022-11-24T11:34:22;9.73;;;3.70;;
12024;SDS011;6073;53.230;10.444;2022-11-24T11:36:49;9.18;;;3.53;;
12024;SDS011;6073;53.230;10.444;2022-11-24T11:39:37;8.38;;;3.97;;
12024;SDS011;6073;53.230;10.444;2022-11-24T11:44:56;15.27;;;4.50;;
12024;SDS011;6073;53.230;10.444;2022-11-24T11:47:43;10.98;;;4.03;;
12024;SDS011;6073;53.230;10.444;2022-11-24T11:50:18;13.13;;;4.40;;
12024;SDS011;6073;53.230;10.444;2022-11-24T12:03:55;9.98;;;3.92;;
12024;SDS011;6073;53.230;10.444;2022-11-24T12:06:42;11.43;;;4.07;;
12024;SDS011;6073;53.230;10.444;2022-11-24T12:12:17;7.68;;;3.63;;
12024;SDS011;6073;53.230;10.444;2022-11-24T12:17:45;10.77;;;3.80;;
12024;SDS011;6073;53.230;10.444;2022-11-24T12:20:17;9.38;;;3.70;;
12024;SDS011;6073;53.230;10.444;2022-11-24T12:25:45;12.65;;;4.10;;
12024;SDS011;6073;53.230;10.444;2022-11-24T12:28:29;9.55;;;3.38;;
12024;SDS011;6073;53.230;10.444;2022-11-24T12:31:06;13.35;;;3.72;;
12024;SDS011;6073;53.230;10.444;2022-11-24T12:33:45;12.23;;;4.13;;
12024;SDS011;6073;53.230;10.444;2022-11-24T12:41:57;11.93;;;4.03;;
12024;SDS011;6073;53.230;10.444;2022-11-24T12:44:55;18.83;;;4.40;;
12024;SDS011;6073;53.230;10.444;2022-11-24T12:47:41;14.25;;;4.60;;
12024;SDS011;6073;53.230;10.444;2022-11-24T12:50:15;11.77;;;3.88;;
12024;SDS011;6073;53.230;10.444;2022-11-24T12:52:57;10.05;;;3.90;;
12024;SDS011;6073;53.230;10.444;2022-11-24T12:55:28;12.90;;;4.07;;
12024;SDS011;6073;53.230;10.444;2022-11-24T12:57:58;10.27;;;3.65;;
12024;SDS011;6073;53.230;10.444;2022-11-24T13:03:55;10.80;;;3.95;;
12024;SDS011;6073;53.230;10.444;2022-11-24T13:09:18;13.27;;;4.63;;
12024;SDS011;6073;53.230;10.444;2022-11-24T13:11:47;12.95;;;3.45;;
12024;SDS011;6073;53.230;10.444;2022-11-24T13:16:58;8.20;;;3.50;;
12024;SDS011;6073;53.230;10.444;2022-11-24T13:19:27;12.85;;;4.22;;
12024;SDS011;6073;53.230;10.444;2022-11-24T13:25:20;11.23;;;4.18;;
12024;SDS011;6073;53.230;10.444;2022-11-24T13:27:49;13.00;;;4.28;;
12024;SDS011;6073;53.230;10.444;2022-11-24T13:33:01;11.98;;;4.50;;
12024;SDS011;6073;53.230;10.444;2022-11-24T13:35:37;10.38;;;3.88;;
12024;SDS011;6073;53.230;10.444;2022-11-24T13:38:37;11.20;;;4.97;;
12024;SDS011;6073;53.230;10.444;2022-11-24T13:41:06;15.50;;;5.43;;
12024;SDS011;6073;53.230;10.444;2022-11-24T13:43:35;14.38;;;4.47;;
12024;SDS011;6073;53.230;10.444;2022-11-24T13:46:01;14.68;;;4.95;;
12024;SDS011;6073;53.230;10.444;2022-11-24T13:53:33;10.90;;;4.50;;
12024;SDS011;6073;53.230;10.444;2022-11-24T13:56:05;12.35;;;4.55;;
12024;SDS011;6073;53.230;10.444;2022-11-24T13:58:45;9.18;;;4.10;;
12024;SDS011;6073;53.230;10.444;2022-11-24T14:01:23;10.32;;;4.10;;
12024;SDS011;6073;53.230;10.444;2022-11-24T14:06:43;10.13;;;4.63;;
12024;SDS011;6073;53.230;10.444;2022-11-24T14:09:52;13.07;;;4.63;;
12024;SDS011;6073;53.230;10.444;2022-11-24T14:12:13;10.48;;;4.05;;
12024;SDS011;6073;53.230;10.444;2022-11-24T14:14:49;9.38;;;4.00;;
12024;SDS011;6073;53.230;10.444;2022-11-24T14:17:18;13.05;;;4.43;;
12024;SDS011;6073;53.230;10.444;2022-11-24T14:19:50;8.57;;;3.60;;
12024;SDS011;6073;53.230;10.444;2022-11-24T14:22:21;14.15;;;5.03;;
12024;SDS011;6073;53.230;10.444;2022-11-24T14:25:00;13.50;;;4.45;;
12024;SDS011;6073;53.230;10.444;2022-11-24T14:27:37;10.32;;;4.38;;
12024;SDS011;6073;53.230;10.444;2022-11-24T14:32:37;12.27;;;4.25;;
12024;SDS011;6073;53.230;10.444;2022-11-24T14:35:22;10.07;;;4.53;;
12024;SDS011;6073;53.230;10.444;2022-11-24T14:37:50;11.63;;;4.78;;
12024;SDS011;6073;53.230;10.444;2022-11-24T14:43:29;12.77;;;4.78;;
12024;SDS011;6073;53.230;10.444;2022-11-24T14:45:57;11.95;;;4.43;;
12024;SDS011;6073;53.230;10.444;2022-11-24T14:48:32;7.85;;;3.70;;
12024;SDS011;6073;53.230;10.444;2022-11-24T14:53:35;10.88;;;4.30;;
12024;SDS011;6073;53.230;10.444;2022-11-24T14:56:05;13.50;;;5.38;;
12024;SDS011;6073;53.230;10.444;2022-11-24T14:58:43;9.65;;;4.18;;
12024;SDS011;6073;53.230;10.444;2022-11-24T15:01:10;9.80;;;4.57;;
12024;SDS011;6073;53.230;10.444;2022-11-24T15:03:45;8.80;;;4.70;;
12024;SDS011;6073;53.230;10.444;2022-11-24T15:06:15;11.95;;;4.80;;
12024;SDS011;6073;53.230;10.444;2022-11-24T15:08:44;9.80;;;4.45;;
12024;SDS011;6073;53.230;10.444;2022-11-24T15:11:13;13.90;;;4.18;;
12024;SDS011;6073;53.230;10.444;2022-11-24T15:13:39;9.40;;;4.20;;
12024;SDS011;6073;53.230;10.444;2022-11-24T15:16:18;12.35;;;3.97;;
12024;SDS011;6073;53.230;10.444;2022-11-24T15:18:46;10.13;;;4.20;;
12024;SDS011;6073;53.230;10.444;2022-11-24T15:21:28;15.50;;;4.93;;
12024;SDS011;6073;53.230;10.444;2022-11-24T15:24:19;11.77;;;4.72;;
12024;SDS011;6073;53.230;10.444;2022-11-24T15:26:44;11.30;;;4.80;;
12024;SDS011;6073;53.230;10.444;2022-11-24T15:29:11;12.30;;;4.32;;
12024;SDS011;6073;53.230;10.444;2022-11-24T15:31:40;9.25;;;4.53;;
12024;SDS011;6073;53.230;10.444;2022-11-24T15:34:06;16.33;;;5.20;;
12024;SDS011;6073;53.230;10.444;2022-11-24T15:36:36;14.00;;;4.95;;
12024;SDS011;6073;53.230;10.444;2022-11-24T15:39:02;13.07;;;4.93;;
12024;SDS011;6073;53.230;10.444;2022-11-24T15:41:28;11.93;;;4.35;;
12024;SDS011;6073;53.230;10.444;2022-11-24T15:43:55;8.73;;;4.47;;
12024;SDS011;6073;53.230;10.444;2022-11-24T15:46:27;15.07;;;5.40;;
12024;SDS011;6073;53.230;10.444;2022-11-24T15:48:54;12.93;;;5.95;;
12024;SDS011;6073;53.230;10.444;2022-11-24T15:51:22;8.95;;;5.07;;
12024;SDS011;6073;53.230;10.444;2022-11-24T15:53:50;10.50;;;4.78;;
12024;SDS011;6073;53.230;10.444;2022-11-24T15:56:39;10.95;;;5.78;;
12024;SDS011;6073;53.230;10.444;2022-11-24T15:59:05;10.88;;;5.53;;
12024;SDS011;6073;53.230;10.444;2022-11-24T16:01:37;12.45;;;6.13;;
12024;SDS011;6073;53.230;10.444;2022-11-24T16:04:02;10.77;;;5.43;;
12024;SDS011;6073;53.230;10.444;2022-11-24T16:06:28;12.25;;;5.63;;
12024;SDS011;6073;53.230;10.444;2022-11-24T16:08:54;12.23;;;5.47;;
12024;SDS011;6073;53.230;10.444;2022-11-24T16:11:20;14.88;;;5.05;;
12024;SDS011;6073;53.230;10.444;2022-11-24T16:13:46;13.55;;;5.90;;
12024;SDS011;6073;53.230;10.444;2022-11-24T16:16:12;12.68;;;5.65;;
12024;SDS011;6073;53.230;10.444;2022-11-24T16:18:45;13.63;;;5.35;;
12024;SDS011;6073;53.230;10.444;2022-11-24T16:21:14;10.95;;;5.25;;
12024;SDS011;6073;53.230;10.444;2022-11-24T16:23:40;12.43;;;5.10;;
12024;SDS011;6073;53.230;10.444;2022-11-24T16:26:06;10.10;;;4.70;;
12024;SDS011;6073;53.230;10.444;2022-11-24T16:28:31;17.23;;;8.90;;